sensor_id;sensor_type;location;lat;lon;timestamp;pressure;altitude;pressure_sealevel;temperature;humidity
21547;BME280;41275;51.912;4.388;2023-07-09T00:03:55;101660.50;;;31.87;40.81
21547;BME280;41275;51.912;4.388;2023-07-09T00:09:18;101670.69;;;31.74;41.13
21547;BME280;41275;51.912;4.388;2023-07-09T00:14:40;101671.53;;;31.63;41.54
21547;BME280;41275;51.912;4.388;2023-07-09T00:20:03;101679.66;;;31.59;41.26
21547;BME280;41275;51.912;4.388;2023-07-09T00:25:26;101678.66;;;31.51;41.99
21547;BME280;41275;51.912;4.388;2023-07-09T00:30:48;101684.50;;;31.50;42.02
21547;BME280;41275;51.912;4.388;2023-07-09T00:36:25;101683.59;;;31.46;42.42
21547;BME280;41275;51.912;4.388;2023-07-09T00:41:47;101683.66;;;31.34;42.65
21547;BME280;41275;51.912;4.388;2023-07-09T00:47:22;101674.78;;;31.24;42.96
21547;BME280;41275;51.912;4.388;2023-07-09T00:52:51;101677.72;;;31.19;43.27
21547;BME280;41275;51.912;4.388;2023-07-09T00:58:15;101671.94;;;31.21;43.63
21547;BME280;41275;51.912;4.388;2023-07-09T01:03:40;101676.69;;;31.24;43.55
21547;BME280;41275;51.912;4.388;2023-07-09T01:09:03;101684.56;;;31.25;43.44
21547;BME280;41275;51.912;4.388;2023-07-09T01:14:25;101694.59;;;31.21;43.64
21547;BME280;41275;51.912;4.388;2023-07-09T01:19:50;101694.81;;;31.16;43.61
21547;BME280;41275;51.912;4.388;2023-07-09T01:25:11;101700.88;;;31.10;43.76
21547;BME280;41275;51.912;4.388;2023-07-09T01:30:37;101701.94;;;31.05;44.09
21547;BME280;41275;51.912;4.388;2023-07-09T01:35:59;101707.16;;;30.98;43.92
21547;BME280;41275;51.912;4.388;2023-07-09T01:41:21;101694.75;;;30.88;44.18
21547;BME280;41275;51.912;4.388;2023-07-09T01:46:43;101704.66;;;30.80;44.40
21547;BME280;41275;51.912;4.388;2023-07-09T01:52:07;101694.19;;;30.70;44.68
21547;BME280;41275;51.912;4.388;2023-07-09T01:57:33;101691.47;;;30.70;44.60
21547;BME280;41275;51.912;4.388;2023-07-09T02:02:54;101684.38;;;30.69;44.91
21547;BME280;41275;51.912;4.388;2023-07-09T02:08:16;101699.06;;;30.65;45.14
21547;BME280;41275;51.912;4.388;2023-07-09T02:13:37;101696.56;;;30.60;45.29
21547;BME280;41275;51.912;4.388;2023-07-09T02:18:58;101695.66;;;30.55;45.17
21547;BME280;41275;51.912;4.388;2023-07-09T02:24:21;101692.69;;;30.48;45.44
21547;BME280;41275;51.912;4.388;2023-07-09T02:29:46;101701.56;;;30.45;45.50
21547;BME280;41275;51.912;4.388;2023-07-09T02:35:07;101694.75;;;30.39;45.58
21547;BME280;41275;51.912;4.388;2023-07-09T02:40:29;101699.31;;;30.35;45.40
21547;BME280;41275;51.912;4.388;2023-07-09T02:45:50;101695.53;;;30.27;45.84
21547;BME280;41275;51.912;4.388;2023-07-09T02:51:11;101698.94;;;30.24;45.96
21547;BME280;41275;51.912;4.388;2023-07-09T02:56:33;101700.88;;;30.24;45.97
21547;BME280;41275;51.912;4.388;2023-07-09T03:01:54;101693.81;;;30.23;46.19
21547;BME280;41275;51.912;4.388;2023-07-09T03:07:16;101696.22;;;30.24;46.07
21547;BME280;41275;51.912;4.388;2023-07-09T03:12:37;101704.41;;;30.24;45.82
21547;BME280;41275;51.912;4.388;2023-07-09T03:17:59;101703.69;;;30.15;46.01
21547;BME280;41275;51.912;4.388;2023-07-09T03:23:20;101720.88;;;30.16;45.93
21547;BME280;41275;51.912;4.388;2023-07-09T03:28:41;101726.63;;;30.14;46.15
21547;BME280;41275;51.912;4.388;2023-07-09T03:34:02;101719.81;;;30.08;46.06
21547;BME280;41275;51.912;4.388;2023-07-09T03:39:24;101726.19;;;30.12;46.37
21547;BME280;41275;51.912;4.388;2023-07-09T03:44:45;101724.06;;;30.18;46.32
21547;BME280;41275;51.912;4.388;2023-07-09T03:50:08;101700.41;;;30.22;46.17
21547;BME280;41275;51.912;4.388;2023-07-09T03:55:30;101703.47;;;30.20;46.14
21547;BME280;41275;51.912;4.388;2023-07-09T04:00:52;101710.22;;;30.23;46.19
21547;BME280;41275;51.912;4.388;2023-07-09T04:06:13;101708.28;;;30.23;45.86
21547;BME280;41275;51.912;4.388;2023-07-09T04:11:34;101712.94;;;30.23;46.03
21547;BME280;41275;51.912;4.388;2023-07-09T04:16:56;101716.16;;;30.04;45.95
21547;BME280;41275;51.912;4.388;2023-07-09T04:22:18;101722.03;;;29.94;46.05
21547;BME280;41275;51.912;4.388;2023-07-09T04:27:40;101724.63;;;29.90;45.90
21547;BME280;41275;51.912;4.388;2023-07-09T04:33:01;101725.31;;;29.87;46.11
21547;BME280;41275;51.912;4.388;2023-07-09T04:38:23;101729.69;;;30.00;46.33
21547;BME280;41275;51.912;4.388;2023-07-09T04:43:44;101730.22;;;29.94;46.31
21547;BME280;41275;51.912;4.388;2023-07-09T04:49:05;101736.16;;;29.96;46.41
21547;BME280;41275;51.912;4.388;2023-07-09T04:54:27;101734.56;;;29.95;46.69
21547;BME280;41275;51.912;4.388;2023-07-09T04:59:48;101747.34;;;30.15;46.64
21547;BME280;41275;51.912;4.388;2023-07-09T05:05:10;101752.41;;;30.38;45.94
21547;BME280;41275;51.912;4.388;2023-07-09T05:10:32;101751.75;;;30.53;45.71
21547;BME280;41275;51.912;4.388;2023-07-09T05:15:54;101751.88;;;30.44;45.42
21547;BME280;41275;51.912;4.388;2023-07-09T05:21:15;101738.88;;;30.41;45.18
21547;BME280;41275;51.912;4.388;2023-07-09T05:26:37;101740.16;;;30.44;45.10
21547;BME280;41275;51.912;4.388;2023-07-09T05:31:58;101743.69;;;30.44;44.30
21547;BME280;41275;51.912;4.388;2023-07-09T05:37:19;101742.22;;;30.59;43.29
21547;BME280;41275;51.912;4.388;2023-07-09T05:42:40;101735.16;;;30.58;41.99
21547;BME280;41275;51.912;4.388;2023-07-09T05:48:02;101733.50;;;30.78;41.53
21547;BME280;41275;51.912;4.388;2023-07-09T05:53:24;101745.19;;;31.03;40.25
21547;BME280;41275;51.912;4.388;2023-07-09T05:58:45;101740.88;;;31.02;39.86
21547;BME280;41275;51.912;4.388;2023-07-09T06:04:06;101738.59;;;30.92;39.11
21547;BME280;41275;51.912;4.388;2023-07-09T06:09:27;101743.84;;;30.85;39.02
21547;BME280;41275;51.912;4.388;2023-07-09T06:14:48;101749.94;;;30.69;39.15
21547;BME280;41275;51.912;4.388;2023-07-09T06:20:10;101767.25;;;30.61;39.33
21547;BME280;41275;51.912;4.388;2023-07-09T06:25:31;101763.47;;;30.53;38.88
21547;BME280;41275;51.912;4.388;2023-07-09T06:30:53;101774.38;;;30.74;38.37
21547;BME280;41275;51.912;4.388;2023-07-09T06:36:14;101778.31;;;30.77;38.12
21547;BME280;41275;51.912;4.388;2023-07-09T06:41:35;101793.59;;;30.78;38.03
21547;BME280;41275;51.912;4.388;2023-07-09T06:46:59;101789.44;;;30.60;38.56
21547;BME280;41275;51.912;4.388;2023-07-09T06:52:20;101796.75;;;30.68;38.53
21547;BME280;41275;51.912;4.388;2023-07-09T06:57:42;101804.72;;;30.73;38.69
21547;BME280;41275;51.912;4.388;2023-07-09T07:03:04;101803.50;;;30.95;38.01
21547;BME280;41275;51.912;4.388;2023-07-09T07:08:25;101791.34;;;31.17;37.74
21547;BME280;41275;51.912;4.388;2023-07-09T07:13:47;101787.91;;;31.44;37.39
21547;BME280;41275;51.912;4.388;2023-07-09T07:19:12;101786.25;;;31.68;36.73
21547;BME280;41275;51.912;4.388;2023-07-09T07:24:33;101777.06;;;31.88;36.21
21547;BME280;41275;51.912;4.388;2023-07-09T07:29:54;101768.16;;;31.91;35.26
21547;BME280;41275;51.912;4.388;2023-07-09T07:35:16;101773.16;;;31.89;35.71
21547;BME280;41275;51.912;4.388;2023-07-09T07:40:38;101773.00;;;31.98;35.98
21547;BME280;41275;51.912;4.388;2023-07-09T07:45:59;101775.59;;;32.07;36.39
21547;BME280;41275;51.912;4.388;2023-07-09T07:51:20;101785.88;;;32.25;36.40
21547;BME280;41275;51.912;4.388;2023-07-09T07:56:43;101791.03;;;32.27;36.33
21547;BME280;41275;51.912;4.388;2023-07-09T08:02:06;101791.22;;;32.50;36.17
21547;BME280;41275;51.912;4.388;2023-07-09T08:07:27;101785.03;;;32.53;36.44
21547;BME280;41275;51.912;4.388;2023-07-09T08:12:48;101786.28;;;32.56;36.76
21547;BME280;41275;51.912;4.388;2023-07-09T08:18:10;101777.38;;;32.59;36.89
21547;BME280;41275;51.912;4.388;2023-07-09T08:23:31;101803.44;;;32.68;36.62
21547;BME280;41275;51.912;4.388;2023-07-09T08:28:53;101799.91;;;32.84;35.90
21547;BME280;41275;51.912;4.388;2023-07-09T08:34:14;101782.28;;;32.85;35.99
21547;BME280;41275;51.912;4.388;2023-07-09T08:39:36;101791.84;;;33.07;35.76
21547;BME280;41275;51.912;4.388;2023-07-09T08:45:09;101794.13;;;33.20;35.21
21547;BME280;41275;51.912;4.388;2023-07-09T08:50:39;101803.88;;;33.53;34.97
21547;BME280;41275;51.912;4.388;2023-07-09T08:56:03;101812.84;;;33.69;34.50
21547;BME280;41275;51.912;4.388;2023-07-09T09:01:28;101807.34;;;33.69;33.88
21547;BME280;41275;51.912;4.388;2023-07-09T09:07:36;101783.56;;;33.96;33.33
21547;BME280;41275;51.912;4.388;2023-07-09T09:13:08;101788.81;;;34.25;33.31
21547;BME280;41275;51.912;4.388;2023-07-09T09:18:39;101771.69;;;34.54;33.33
21547;BME280;41275;51.912;4.388;2023-07-09T09:24:23;101786.09;;;34.71;32.67
21547;BME280;41275;51.912;4.388;2023-07-09T09:29:47;101783.28;;;34.93;32.55
21547;BME280;41275;51.912;4.388;2023-07-09T09:35:14;101795.72;;;34.84;32.52
21547;BME280;41275;51.912;4.388;2023-07-09T09:40:36;101813.47;;;34.63;32.80
21547;BME280;41275;51.912;4.388;2023-07-09T09:45:59;101808.25;;;34.58;33.11
21547;BME280;41275;51.912;4.388;2023-07-09T09:51:23;101811.59;;;34.67;33.28
21547;BME280;41275;51.912;4.388;2023-07-09T09:56:44;101807.97;;;34.86;32.51
21547;BME280;41275;51.912;4.388;2023-07-09T10:02:17;101797.03;;;35.16;32.07
21547;BME280;41275;51.912;4.388;2023-07-09T10:07:43;101799.59;;;35.32;32.29
21547;BME280;41275;51.912;4.388;2023-07-09T10:13:20;101787.63;;;35.78;31.37
21547;BME280;41275;51.912;4.388;2023-07-09T10:24:37;101838.06;;;35.85;30.77
21547;BME280;41275;51.912;4.388;2023-07-09T10:35:32;101832.38;;;35.71;30.54
21547;BME280;41275;51.912;4.388;2023-07-09T10:40:58;101858.00;;;35.75;30.61
21547;BME280;41275;51.912;4.388;2023-07-09T10:46:25;101849.84;;;36.16;30.43
21547;BME280;41275;51.912;4.388;2023-07-09T10:51:51;101856.16;;;36.17;30.06
21547;BME280;41275;51.912;4.388;2023-07-09T10:57:24;101845.91;;;36.54;29.29
21547;BME280;41275;51.912;4.388;2023-07-09T11:02:48;101843.13;;;36.95;28.98
21547;BME280;41275;51.912;4.388;2023-07-09T11:08:14;101842.63;;;36.86;28.73
21547;BME280;41275;51.912;4.388;2023-07-09T11:13:41;101850.34;;;36.66;29.51
21547;BME280;41275;51.912;4.388;2023-07-09T11:19:04;101870.06;;;36.31;29.56
21547;BME280;41275;51.912;4.388;2023-07-09T11:24:34;101884.00;;;36.45;29.49
21547;BME280;41275;51.912;4.388;2023-07-09T11:29:59;101887.69;;;36.56;29.59
21547;BME280;41275;51.912;4.388;2023-07-09T11:35:23;101915.94;;;35.56;30.93
21547;BME280;41275;51.912;4.388;2023-07-09T11:40:49;101916.66;;;35.49;31.21
21547;BME280;41275;51.912;4.388;2023-07-09T11:46:17;101927.16;;;34.98;32.05
21547;BME280;41275;51.912;4.388;2023-07-09T11:51:45;101930.28;;;34.34;33.27
21547;BME280;41275;51.912;4.388;2023-07-09T11:57:12;101924.16;;;34.22;33.39
21547;BME280;41275;51.912;4.388;2023-07-09T12:02:34;101922.50;;;34.17;33.72
21547;BME280;41275;51.912;4.388;2023-07-09T12:07:57;101940.75;;;33.90;34.63
21547;BME280;41275;51.912;4.388;2023-07-09T12:13:19;101948.34;;;33.14;36.05
21547;BME280;41275;51.912;4.388;2023-07-09T12:18:40;101938.50;;;32.13;37.96
21547;BME280;41275;51.912;4.388;2023-07-09T12:24:02;101949.25;;;31.81;38.79
21547;BME280;41275;51.912;4.388;2023-07-09T12:29:27;101945.53;;;30.91;39.38
21547;BME280;41275;51.912;4.388;2023-07-09T12:34:53;101935.72;;;30.36;40.61
21547;BME280;41275;51.912;4.388;2023-07-09T12:40:18;101928.84;;;30.09;41.65
21547;BME280;41275;51.912;4.388;2023-07-09T12:45:41;101929.31;;;30.11;41.47
21547;BME280;41275;51.912;4.388;2023-07-09T12:51:06;101909.97;;;29.74;42.21
21547;BME280;41275;51.912;4.388;2023-07-09T12:56:28;101909.81;;;30.00;42.65
21547;BME280;41275;51.912;4.388;2023-07-09T13:01:55;101905.13;;;30.30;42.18
21547;BME280;41275;51.912;4.388;2023-07-09T13:12:49;101908.47;;;29.56;42.59
21547;BME280;41275;51.912;4.388;2023-07-09T13:18:12;101937.38;;;29.48;42.57
21547;BME280;41275;51.912;4.388;2023-07-09T13:23:33;101940.69;;;29.16;43.25
21547;BME280;41275;51.912;4.388;2023-07-09T13:28:54;101951.28;;;29.17;42.93
21547;BME280;41275;51.912;4.388;2023-07-09T13:34:20;101921.22;;;29.34;42.46
21547;BME280;41275;51.912;4.388;2023-07-09T13:39:42;101904.66;;;29.40;41.42
21547;BME280;41275;51.912;4.388;2023-07-09T13:45:29;101886.06;;;29.42;41.43
21547;BME280;41275;51.912;4.388;2023-07-09T13:50:51;101887.34;;;29.44;41.40
21547;BME280;41275;51.912;4.388;2023-07-09T13:56:13;101880.41;;;29.55;40.94
21547;BME280;41275;51.912;4.388;2023-07-09T14:01:34;101905.41;;;29.28;41.29
21547;BME280;41275;51.912;4.388;2023-07-09T14:06:55;101980.94;;;29.19;41.73
21547;BME280;41275;51.912;4.388;2023-07-09T14:12:17;101962.41;;;29.42;42.98
21547;BME280;41275;51.912;4.388;2023-07-09T14:17:38;101987.59;;;29.39;44.19
21547;BME280;41275;51.912;4.388;2023-07-09T14:22:59;102158.28;;;29.05;44.26
21547;BME280;41275;51.912;4.388;2023-07-09T14:28:21;102009.81;;;28.42;46.11
21547;BME280;41275;51.912;4.388;2023-07-09T14:33:43;101933.25;;;28.43;48.20
21547;BME280;41275;51.912;4.388;2023-07-09T14:39:09;101915.88;;;29.08;48.71
21547;BME280;41275;51.912;4.388;2023-07-09T14:44:31;101907.34;;;29.57;48.19
21547;BME280;41275;51.912;4.388;2023-07-09T14:49:52;101898.91;;;30.75;46.92
21547;BME280;41275;51.912;4.388;2023-07-09T14:55:19;101904.59;;;31.52;44.76
21547;BME280;41275;51.912;4.388;2023-07-09T15:00:41;101868.22;;;31.40;44.75
21547;BME280;41275;51.912;4.388;2023-07-09T15:06:02;101854.19;;;31.04;44.56
21547;BME280;41275;51.912;4.388;2023-07-09T15:11:23;101861.94;;;30.57;44.92
21547;BME280;41275;51.912;4.388;2023-07-09T15:16:48;101861.56;;;31.77;43.32
21547;BME280;41275;51.912;4.388;2023-07-09T15:22:28;101880.34;;;33.55;40.37
21547;BME280;41275;51.912;4.388;2023-07-09T15:27:51;101884.28;;;33.22;39.07
21547;BME280;41275;51.912;4.388;2023-07-09T15:33:18;101885.38;;;32.30;39.27
21547;BME280;41275;51.912;4.388;2023-07-09T15:38:39;101890.88;;;31.03;40.97
21547;BME280;41275;51.912;4.388;2023-07-09T15:44:02;101899.31;;;30.98;40.30
21547;BME280;41275;51.912;4.388;2023-07-09T15:49:23;101892.06;;;32.16;38.47
21547;BME280;41275;51.912;4.388;2023-07-09T15:54:45;101897.16;;;33.69;35.65
21547;BME280;41275;51.912;4.388;2023-07-09T16:00:15;101903.31;;;33.82;33.75
21547;BME280;41275;51.912;4.388;2023-07-09T16:05:36;101920.38;;;33.08;33.90
21547;BME280;41275;51.912;4.388;2023-07-09T16:10:58;101940.03;;;33.93;32.76
21547;BME280;41275;51.912;4.388;2023-07-09T16:16:22;101943.41;;;34.22;31.88
21547;BME280;41275;51.912;4.388;2023-07-09T16:21:45;101953.03;;;34.31;31.54
21547;BME280;41275;51.912;4.388;2023-07-09T16:27:06;101959.50;;;34.42;31.18
21547;BME280;41275;51.912;4.388;2023-07-09T16:32:31;101936.81;;;34.88;30.34
21547;BME280;41275;51.912;4.388;2023-07-09T16:37:53;101938.31;;;33.69;31.68
21547;BME280;41275;51.912;4.388;2023-07-09T16:43:16;101934.88;;;32.93;32.77
21547;BME280;41275;51.912;4.388;2023-07-09T16:48:38;101953.03;;;33.29;32.17
21547;BME280;41275;51.912;4.388;2023-07-09T16:53:59;101945.78;;;33.21;32.36
21547;BME280;41275;51.912;4.388;2023-07-09T16:59:24;101966.03;;;32.72;32.97
21547;BME280;41275;51.912;4.388;2023-07-09T17:04:45;101965.34;;;31.58;35.50
21547;BME280;41275;51.912;4.388;2023-07-09T17:10:07;101977.75;;;30.86;37.11
21547;BME280;41275;51.912;4.388;2023-07-09T17:15:31;101983.56;;;29.92;38.68
21547;BME280;41275;51.912;4.388;2023-07-09T17:20:54;101990.06;;;29.23;39.93
21547;BME280;41275;51.912;4.388;2023-07-09T17:26:16;101997.31;;;28.93;40.26
21547;BME280;41275;51.912;4.388;2023-07-09T17:31:40;101992.34;;;28.86;40.88
21547;BME280;41275;51.912;4.388;2023-07-09T17:37:01;101998.47;;;28.66;41.59
21547;BME280;41275;51.912;4.388;2023-07-09T17:42:23;102009.00;;;28.41;41.65
21547;BME280;41275;51.912;4.388;2023-07-09T17:47:44;102004.63;;;28.14;41.99
21547;BME280;41275;51.912;4.388;2023-07-09T17:53:12;102025.59;;;27.74;43.06
21547;BME280;41275;51.912;4.388;2023-07-09T17:58:37;102014.28;;;27.80;43.07
21547;BME280;41275;51.912;4.388;2023-07-09T18:04:00;102002.28;;;28.65;42.30
21547;BME280;41275;51.912;4.388;2023-07-09T18:09:21;102005.34;;;28.63;41.80
21547;BME280;41275;51.912;4.388;2023-07-09T18:14:44;102006.75;;;28.26;42.48
21547;BME280;41275;51.912;4.388;2023-07-09T18:20:14;102002.56;;;28.28;42.59
21547;BME280;41275;51.912;4.388;2023-07-09T18:25:38;101989.75;;;28.20;42.52
21547;BME280;41275;51.912;4.388;2023-07-09T18:31:00;102006.63;;;28.40;42.29
21547;BME280;41275;51.912;4.388;2023-07-09T18:36:21;102025.00;;;28.34;42.31
21547;BME280;41275;51.912;4.388;2023-07-09T18:41:43;102024.50;;;28.23;42.39
21547;BME280;41275;51.912;4.388;2023-07-09T18:47:12;102015.81;;;28.04;42.65
21547;BME280;41275;51.912;4.388;2023-07-09T18:52:33;102007.63;;;28.04;42.18
21547;BME280;41275;51.912;4.388;2023-07-09T18:57:55;101999.72;;;27.76;42.35
21547;BME280;41275;51.912;4.388;2023-07-09T19:03:19;102000.09;;;27.92;42.54
21547;BME280;41275;51.912;4.388;2023-07-09T19:08:41;102000.84;;;27.84;42.52
21547;BME280;41275;51.912;4.388;2023-07-09T19:14:03;102013.44;;;27.71;42.83
21547;BME280;41275;51.912;4.388;2023-07-09T19:19:26;102001.03;;;27.56;43.08
21547;BME280;41275;51.912;4.388;2023-07-09T19:24:48;101999.81;;;27.31;43.71
21547;BME280;41275;51.912;4.388;2023-07-09T19:30:11;101997.56;;;27.33;43.71
21547;BME280;41275;51.912;4.388;2023-07-09T19:35:32;102002.34;;;27.28;43.38
21547;BME280;41275;51.912;4.388;2023-07-09T19:40:54;101998.53;;;27.37;43.48
21547;BME280;41275;51.912;4.388;2023-07-09T19:46:24;102008.03;;;27.17;43.52
21547;BME280;41275;51.912;4.388;2023-07-09T19:51:46;102005.44;;;27.12;44.02
21547;BME280;41275;51.912;4.388;2023-07-09T19:57:07;102005.97;;;27.01;44.12
21547;BME280;41275;51.912;4.388;2023-07-09T20:02:28;102022.75;;;26.80;44.48
21547;BME280;41275;51.912;4.388;2023-07-09T20:07:53;102015.06;;;26.60;44.82
21547;BME280;41275;51.912;4.388;2023-07-09T20:13:20;102021.34;;;26.47;45.26
21547;BME280;41275;51.912;4.388;2023-07-09T20:18:42;102041.31;;;26.37;45.65
21547;BME280;41275;51.912;4.388;2023-07-09T20:29:36;102028.25;;;26.25;46.91
21547;BME280;41275;51.912;4.388;2023-07-09T20:34:57;102029.06;;;26.53;46.79
21547;BME280;41275;51.912;4.388;2023-07-09T20:40:21;102047.69;;;26.46;46.54
21547;BME280;41275;51.912;4.388;2023-07-09T20:45:43;102038.09;;;26.49;47.11
21547;BME280;41275;51.912;4.388;2023-07-09T20:51:04;102042.44;;;26.50;46.85
21547;BME280;41275;51.912;4.388;2023-07-09T20:56:25;102042.81;;;26.43;46.91
21547;BME280;41275;51.912;4.388;2023-07-09T21:01:46;102044.44;;;26.30;46.95
21547;BME280;41275;51.912;4.388;2023-07-09T21:07:08;102051.50;;;26.17;47.48
21547;BME280;41275;51.912;4.388;2023-07-09T21:12:31;102072.28;;;26.22;47.42
21547;BME280;41275;51.912;4.388;2023-07-09T21:17:52;102076.41;;;26.19;47.62
21547;BME280;41275;51.912;4.388;2023-07-09T21:23:16;102091.69;;;26.02;48.12
21547;BME280;41275;51.912;4.388;2023-07-09T21:28:38;102091.88;;;25.91;48.56
21547;BME280;41275;51.912;4.388;2023-07-09T21:33:59;102093.78;;;25.91;48.70
21547;BME280;41275;51.912;4.388;2023-07-09T21:39:22;102098.09;;;25.78;49.07
21547;BME280;41275;51.912;4.388;2023-07-09T21:44:44;102105.38;;;25.78;49.17
21547;BME280;41275;51.912;4.388;2023-07-09T21:50:13;102097.25;;;25.78;49.36
21547;BME280;41275;51.912;4.388;2023-07-09T21:55:35;102093.09;;;25.66;49.60
21547;BME280;41275;51.912;4.388;2023-07-09T22:00:56;102103.22;;;25.61;49.87
21547;BME280;41275;51.912;4.388;2023-07-09T22:06:17;102099.03;;;25.68;49.87
21547;BME280;41275;51.912;4.388;2023-07-09T22:11:39;102102.97;;;25.76;49.78
21547;BME280;41275;51.912;4.388;2023-07-09T22:17:09;102103.72;;;25.95;49.46
21547;BME280;41275;51.912;4.388;2023-07-09T22:22:30;102102.44;;;26.07;48.81
21547;BME280;41275;51.912;4.388;2023-07-09T22:27:52;102105.94;;;26.07;48.74
21547;BME280;41275;51.912;4.388;2023-07-09T22:33:14;102104.25;;;26.11;48.63
21547;BME280;41275;51.912;4.388;2023-07-09T22:38:36;102093.00;;;26.18;48.28
21547;BME280;41275;51.912;4.388;2023-07-09T22:43:57;102081.53;;;26.35;47.67
21547;BME280;41275;51.912;4.388;2023-07-09T22:49:18;102081.53;;;26.49;46.91
21547;BME280;41275;51.912;4.388;2023-07-09T22:54:46;102072.19;;;26.68;46.49
21547;BME280;41275;51.912;4.388;2023-07-09T23:00:08;102062.38;;;26.81;46.18
21547;BME280;41275;51.912;4.388;2023-07-09T23:05:30;102072.50;;;26.89;45.78
21547;BME280;41275;51.912;4.388;2023-07-09T23:10:55;102050.72;;;26.81;45.87
21547;BME280;41275;51.912;4.388;2023-07-09T23:16:19;102048.06;;;26.89;45.75
21547;BME280;41275;51.912;4.388;2023-07-09T23:21:41;102044.66;;;26.84;45.29
21547;BME280;41275;51.912;4.388;2023-07-09T23:27:04;102037.63;;;26.83;45.65
21547;BME280;41275;51.912;4.388;2023-07-09T23:32:25;102049.47;;;26.87;45.06
21547;BME280;41275;51.912;4.388;2023-07-09T23:37:48;102049.81;;;26.72;45.20
21547;BME280;41275;51.912;4.388;2023-07-09T23:43:14;102050.47;;;26.55;44.82
21547;BME280;41275;51.912;4.388;2023-07-09T23:48:36;102042.94;;;26.38;44.41
21547;BME280;41275;51.912;4.388;2023-07-09T23:53:57;102057.59;;;26.37;44.43
21547;BME280;41275;51.912;4.388;2023-07-09T23:59:20;102057.09;;;26.35;44.02
